createdAt,value
2023-04-11T00:00:32.482Z,82.64
2023-04-11T00:03:00.700Z,82.09
2023-04-11T00:05:28.929Z,81.52
2023-04-11T00:07:56.590Z,81.11
2023-04-11T00:10:25.660Z,81.51
2023-04-11T00:12:56.366Z,81.18
2023-04-11T00:15:26.603Z,80.70
2023-04-11T00:17:55.034Z,80.90
2023-04-11T00:20:23.155Z,79.66
2023-04-11T00:22:50.974Z,80.98
2023-04-11T00:25:18.592Z,80.56
2023-04-11T00:27:47.574Z,81.38
2023-04-11T00:30:15.555Z,82.41
2023-04-11T00:32:46.142Z,82.30
2023-04-11T00:35:13.941Z,81.96
2023-04-11T00:37:44.261Z,81.35
2023-04-11T00:40:14.084Z,81.30
2023-04-11T00:42:41.782Z,81.38
2023-04-11T00:45:11.918Z,81.66
2023-04-11T00:47:39.881Z,81.85
2023-04-11T00:50:09.042Z,81.49
2023-04-11T00:52:39.055Z,81.27
2023-04-11T00:55:08.258Z,81.63
2023-04-11T00:57:35.998Z,80.66
2023-04-11T01:00:04.731Z,81.70
2023-04-11T01:02:33.894Z,80.50
2023-04-11T01:05:02.164Z,81.94
2023-04-11T01:07:32.134Z,82.57
2023-04-11T01:10:01.364Z,82.97
2023-04-11T01:12:30.348Z,81.70
2023-04-11T01:14:58.620Z,81.96
2023-04-11T01:17:27.191Z,82.32
2023-04-11T01:19:56.437Z,80.83
2023-04-11T01:22:25.625Z,82.13
2023-04-11T01:24:54.848Z,79.62
2023-04-11T01:27:22.593Z,81.25
2023-04-11T01:29:51.058Z,82.23
2023-04-11T01:32:18.661Z,81.85
2023-04-11T01:34:49.493Z,81.18
2023-04-11T01:37:17.453Z,80.93
2023-04-11T01:39:45.121Z,79.97
2023-04-11T01:42:14.963Z,79.77
2023-04-11T01:44:43.476Z,80.61
2023-04-11T01:47:11.316Z,80.37
2023-04-11T01:49:39.258Z,80.42
2023-04-11T01:52:07.026Z,78.54
2023-04-11T01:54:34.719Z,78.69
2023-04-11T01:57:02.395Z,79.43
2023-04-11T01:59:31.426Z,79.14
2023-04-11T02:01:59.418Z,78.98
2023-04-11T02:04:27.596Z,79.36
2023-04-11T02:06:55.321Z,80.06
2023-04-11T02:09:22.991Z,80.81
2023-04-11T02:11:50.588Z,81.07
2023-04-11T02:14:20.652Z,81.78
2023-04-11T02:16:54.175Z,82.37
2023-04-11T02:19:23.261Z,83.22
2023-04-11T02:21:50.946Z,82.51
2023-04-11T02:24:18.750Z,81.09
2023-04-11T02:26:46.452Z,80.39
2023-04-11T02:29:14.193Z,81.10
2023-04-11T02:31:42.061Z,80.09
2023-04-11T02:34:11.214Z,80.15
2023-04-11T02:36:38.847Z,82.34
2023-04-11T02:39:07.189Z,81.17
2023-04-11T02:41:34.835Z,80.42
2023-04-11T02:44:02.442Z,80.29
2023-04-11T02:46:30.119Z,81.26
2023-04-11T02:48:57.954Z,80.49
2023-04-11T02:51:27.168Z,78.97
2023-04-11T02:53:54.859Z,78.78
2023-04-11T02:56:23.208Z,79.92
2023-04-11T02:58:52.600Z,80.27
2023-04-11T03:01:21.590Z,81.56
2023-04-11T03:03:49.579Z,82.04
2023-04-11T03:06:17.428Z,81.86
2023-04-11T03:08:46.723Z,80.52
2023-04-11T03:11:14.427Z,82.00
2023-04-11T03:13:43.673Z,81.35
2023-04-11T03:16:13.917Z,84.48
2023-04-11T03:18:41.743Z,83.21
2023-04-11T03:21:10.828Z,82.02
2023-04-11T03:23:38.602Z,82.59
2023-04-11T03:26:08.441Z,83.02
2023-04-11T03:28:36.185Z,83.30
2023-04-11T03:31:04.018Z,82.37
2023-04-11T03:33:31.830Z,84.60
2023-04-11T03:35:59.626Z,84.97
2023-04-11T03:38:27.462Z,87.43
2023-04-11T03:40:55.291Z,85.96
2023-04-11T03:43:24.307Z,85.82
2023-04-11T03:45:53.394Z,87.31
2023-04-11T03:48:21.211Z,87.43
2023-04-11T03:50:48.941Z,87.15
2023-04-11T03:53:16.636Z,87.18
2023-04-11T03:55:44.319Z,86.15
2023-04-11T03:58:12.407Z,86.69
2023-04-11T04:00:41.676Z,87.37
2023-04-11T04:03:09.622Z,87.16
2023-04-11T04:05:37.657Z,87.28
2023-04-11T04:08:06.006Z,85.56
2023-04-11T04:10:33.782Z,86.92
2023-04-11T04:13:01.439Z,86.11
2023-04-11T04:15:29.259Z,85.39
2023-04-11T04:17:58.990Z,85.53
2023-04-11T04:20:26.718Z,84.23
2023-04-11T04:22:55.574Z,83.73
2023-04-11T04:25:25.668Z,84.11
2023-04-11T04:27:58.360Z,83.83
2023-04-11T04:30:28.721Z,83.88
2023-04-11T04:32:59.265Z,84.07
2023-04-11T04:35:27.889Z,83.46
2023-04-11T04:37:56.167Z,84.14
2023-04-11T04:40:23.930Z,84.71
2023-04-11T04:42:58.854Z,83.38
2023-04-11T04:45:26.742Z,85.09
2023-04-11T04:47:55.062Z,84.63
2023-04-11T04:50:24.138Z,83.87
2023-04-11T04:52:52.907Z,83.37
2023-04-11T04:55:22.025Z,84.18
2023-04-11T04:57:49.663Z,84.68
2023-04-11T05:00:19.418Z,83.84
2023-04-11T05:02:49.497Z,85.08
2023-04-11T05:05:20.050Z,84.02
2023-04-11T05:07:49.356Z,83.99
2023-04-11T05:10:17.524Z,83.82
2023-04-11T05:12:45.596Z,84.88
2023-04-11T05:15:15.159Z,85.06
2023-04-11T05:17:43.568Z,84.70
2023-04-11T05:20:13.759Z,84.46
2023-04-11T05:22:42.240Z,84.20
2023-04-11T05:25:11.999Z,84.73
2023-04-11T05:27:39.817Z,84.87
2023-04-11T05:30:08.856Z,85.35
2023-04-11T05:32:36.655Z,83.73
2023-04-11T05:35:04.539Z,85.22
2023-04-11T05:37:32.324Z,83.46
2023-04-11T05:40:01.631Z,83.90
2023-04-11T05:42:30.697Z,84.26
2023-04-11T05:44:58.384Z,84.49
2023-04-11T05:47:26.516Z,83.91
2023-04-11T05:49:54.313Z,83.96
2023-04-11T05:52:22.318Z,83.50
2023-04-11T05:54:50.685Z,82.55
2023-04-11T05:57:18.866Z,83.26
2023-04-11T05:59:50.098Z,83.28
2023-04-11T06:02:18.093Z,83.48
2023-04-11T06:04:46.060Z,83.12
2023-04-11T06:07:14.079Z,81.98
2023-04-11T06:09:42.680Z,81.82
2023-04-11T06:12:10.988Z,82.42
2023-04-11T06:14:40.600Z,81.48
2023-04-11T06:17:09.833Z,81.53
2023-04-11T06:19:37.498Z,81.24
2023-04-11T06:22:05.262Z,80.87
2023-04-11T06:24:37.125Z,80.09
2023-04-11T06:27:06.010Z,79.17
2023-04-11T06:29:33.853Z,77.42
2023-04-11T06:32:01.570Z,76.93
2023-04-11T06:34:30.769Z,76.37
2023-04-11T06:36:58.530Z,75.74
2023-04-11T06:39:26.806Z,73.78
2023-04-11T06:41:54.406Z,71.57
2023-04-11T06:44:22.108Z,72.64
2023-04-11T06:46:49.845Z,71.67
2023-04-11T06:49:19.020Z,70.29
2023-04-11T06:51:50.077Z,72.99
2023-04-11T06:54:19.792Z,75.56
2023-04-11T06:56:47.653Z,73.69
2023-04-11T06:59:15.747Z,73.69
2023-04-11T07:01:43.747Z,75.14
2023-04-11T07:04:11.677Z,72.52
2023-04-11T07:06:39.977Z,71.97
2023-04-11T07:09:10.559Z,70.15
2023-04-11T07:11:38.569Z,71.28
2023-04-11T07:14:06.491Z,69.52
2023-04-11T07:16:34.545Z,69.14
2023-04-11T07:19:03.239Z,68.24
2023-04-11T07:21:32.464Z,66.97
2023-04-11T07:24:01.101Z,67.15
2023-04-11T07:26:32.600Z,67.20
2023-04-11T07:29:00.877Z,68.85
2023-04-11T07:31:28.839Z,68.86
2023-04-11T07:33:56.847Z,65.71
2023-04-11T07:36:24.682Z,64.63
2023-04-11T07:38:53.123Z,62.13
2023-04-11T07:41:21.028Z,62.17
2023-04-11T07:43:50.093Z,59.58
2023-04-11T07:46:17.821Z,59.06
2023-04-11T07:48:45.538Z,57.65
2023-04-11T07:51:13.650Z,56.92
2023-04-11T07:53:41.469Z,55.41
2023-04-11T07:56:09.987Z,54.72
2023-04-11T07:58:37.758Z,55.34
2023-04-11T08:01:09.079Z,55.13
2023-04-11T08:03:37.050Z,55.07
2023-04-11T08:06:05.672Z,54.16
2023-04-11T08:08:33.830Z,53.69
2023-04-11T08:11:01.566Z,53.69
2023-04-11T08:13:29.605Z,52.48
2023-04-11T08:15:57.356Z,52.13
2023-04-11T08:18:26.923Z,52.09
2023-04-11T08:20:54.636Z,54.44
2023-04-11T08:23:23.439Z,53.46
2023-04-11T08:25:51.702Z,52.83
2023-04-11T08:28:20.955Z,51.66
2023-04-11T08:30:48.728Z,52.40
2023-04-11T08:33:16.467Z,52.86
2023-04-11T08:35:45.634Z,53.18
2023-04-11T08:38:13.281Z,53.27
2023-04-11T08:40:40.948Z,53.39
2023-04-11T08:43:12.231Z,52.59
2023-04-11T08:45:40.963Z,53.31
2023-04-11T08:48:09.204Z,52.80
2023-04-11T08:50:37.039Z,54.41
2023-04-11T08:53:08.377Z,53.83
2023-04-11T08:55:36.494Z,52.36
2023-04-11T08:58:04.441Z,54.11
2023-04-11T09:00:32.631Z,53.59
2023-04-11T09:03:02.246Z,55.26
2023-04-11T09:05:31.751Z,54.12
2023-04-11T09:08:00.980Z,51.44
2023-04-11T09:10:30.311Z,48.47
2023-04-11T09:12:58.619Z,49.40
2023-04-11T09:15:28.761Z,44.95
2023-04-11T09:18:00.373Z,46.77
2023-04-11T09:20:30.401Z,47.40
2023-04-11T09:22:59.989Z,47.23
2023-04-11T09:25:28.459Z,46.57
2023-04-11T09:28:13.309Z,47.58
2023-04-11T09:30:51.196Z,46.29
2023-04-11T09:33:22.309Z,45.65
2023-04-11T09:35:53.273Z,45.19
2023-04-11T09:38:32.534Z,46.26
2023-04-11T09:41:01.628Z,44.38
2023-04-11T09:43:49.343Z,44.54
2023-04-11T09:46:18.697Z,46.99
2023-04-11T09:48:47.298Z,45.92
2023-04-11T09:51:24.371Z,46.27
2023-04-11T09:54:03.366Z,48.61
2023-04-11T09:56:34.168Z,48.50
2023-04-11T09:59:04.728Z,48.51
2023-04-11T10:01:33.250Z,48.25
2023-04-11T10:04:01.825Z,48.64
2023-04-11T10:06:34.255Z,50.36
2023-04-11T10:09:10.845Z,54.39
2023-04-11T10:11:41.421Z,55.57
2023-04-11T10:14:10.716Z,54.87
2023-04-11T10:17:16.925Z,53.26
2023-04-11T10:19:47.964Z,51.85
2023-04-11T10:22:49.787Z,53.04
2023-04-11T10:25:19.834Z,52.06
2023-04-11T10:27:48.812Z,50.09
2023-04-11T10:30:20.301Z,50.58
2023-04-11T10:33:12.003Z,49.16
2023-04-11T10:35:57.894Z,48.18
2023-04-11T10:38:47.017Z,48.04
2023-04-11T10:41:32.635Z,48.50
2023-04-11T10:44:21.375Z,48.32
2023-04-11T10:46:53.685Z,47.60
2023-04-11T10:49:36.518Z,47.27
2023-04-11T10:52:21.646Z,45.62
2023-04-11T10:54:50.821Z,44.13
2023-04-11T10:57:19.528Z,45.11
2023-04-11T11:00:16.421Z,45.08
2023-04-11T11:02:46.870Z,44.84
2023-04-11T11:05:19.507Z,44.59
2023-04-11T11:07:51.755Z,43.62
2023-04-11T11:10:39.609Z,44.00
2023-04-11T11:13:07.542Z,44.08
2023-04-11T11:15:38.060Z,44.13
2023-04-11T11:18:16.330Z,43.83
2023-04-11T11:20:44.040Z,46.92
2023-04-11T11:23:12.366Z,46.72
2023-04-11T11:25:40.143Z,47.76
2023-04-11T11:28:09.488Z,48.80
2023-04-11T11:30:38.476Z,47.33
2023-04-11T11:33:18.794Z,46.01
2023-04-11T11:35:55.075Z,45.47
2023-04-11T11:38:26.819Z,45.19
2023-04-11T11:40:55.871Z,44.99
2023-04-11T11:43:23.891Z,44.64
2023-04-11T11:46:09.171Z,44.79
2023-04-11T11:48:38.769Z,44.91
2023-04-11T11:51:07.190Z,42.30
2023-04-11T11:53:35.044Z,43.30
2023-04-11T11:56:13.825Z,43.01
2023-04-11T11:58:45.769Z,41.49
2023-04-11T12:01:17.042Z,40.64
2023-04-11T12:03:51.123Z,41.42
2023-04-11T12:06:19.319Z,41.02
2023-04-11T12:08:51.798Z,40.94
2023-04-11T12:11:20.522Z,40.37
2023-04-11T12:13:53.443Z,39.84
2023-04-11T12:16:23.809Z,37.79
2023-04-11T12:18:53.048Z,38.78
2023-04-11T12:21:22.789Z,37.71
2023-04-11T12:23:50.556Z,35.67
2023-04-11T12:26:20.041Z,36.02
2023-04-11T12:28:47.860Z,37.74
2023-04-11T12:31:16.155Z,36.57
2023-04-11T12:33:44.500Z,37.31
2023-04-11T12:36:14.439Z,35.68
2023-04-11T12:38:42.277Z,34.72
2023-04-11T12:43:41.929Z,33.92
2023-04-11T12:46:09.660Z,33.07
2023-04-11T12:48:37.550Z,31.71
2023-04-11T12:51:05.905Z,31.95
2023-04-11T12:53:35.075Z,33.05
2023-04-11T12:56:04.956Z,33.18
2023-04-11T12:58:33.123Z,34.10
2023-04-11T13:01:01.065Z,35.84
2023-04-11T13:03:32.432Z,36.17
2023-04-11T13:06:00.989Z,36.50
2023-04-11T13:08:28.606Z,36.28
2023-04-11T13:10:57.611Z,35.49
2023-04-11T13:13:25.344Z,35.09
2023-04-11T13:15:53.437Z,35.06
2023-04-11T13:18:21.672Z,34.98
2023-04-11T13:20:49.549Z,35.90
2023-04-11T13:23:18.982Z,35.37
2023-04-11T13:25:46.657Z,36.07
2023-04-11T13:28:15.765Z,36.36
2023-04-11T13:30:43.481Z,37.91
2023-04-11T13:33:11.293Z,37.29
2023-04-11T13:35:39.042Z,36.67
2023-04-11T13:38:06.937Z,35.89
2023-04-11T13:40:35.439Z,35.95
2023-04-11T13:43:03.204Z,36.00
2023-04-11T13:45:32.525Z,37.17
2023-04-11T13:48:00.363Z,37.11
2023-04-11T13:50:28.168Z,36.49
2023-04-11T13:52:57.088Z,35.47
2023-04-11T13:55:24.881Z,34.77
2023-04-11T13:57:54.361Z,34.92
2023-04-11T14:00:23.505Z,34.57
2023-04-11T14:02:52.860Z,36.12
2023-04-11T14:05:20.710Z,36.67
2023-04-11T14:07:48.413Z,36.49
2023-04-11T14:10:16.445Z,37.31
2023-04-11T14:12:44.132Z,37.86
2023-04-11T14:15:12.563Z,36.90
2023-04-11T14:17:40.539Z,38.07
2023-04-11T14:20:13.739Z,38.55
2023-04-11T14:22:42.072Z,38.88
2023-04-11T14:25:11.507Z,39.14
2023-04-11T14:27:41.255Z,38.51
2023-04-11T14:30:10.386Z,37.23
2023-04-11T14:32:38.422Z,37.60
2023-04-11T14:35:08.420Z,38.02
2023-04-11T14:37:37.602Z,38.50
2023-04-11T14:40:07.721Z,38.11
2023-04-11T14:42:35.554Z,37.65
2023-04-11T14:45:03.393Z,37.77
2023-04-11T14:47:31.260Z,36.59
2023-04-11T14:49:59.418Z,37.03
2023-04-11T14:52:27.620Z,37.02
2023-04-11T14:54:56.841Z,36.76
2023-04-11T14:57:24.652Z,36.46
2023-04-11T14:59:52.372Z,35.96
2023-04-11T15:02:20.291Z,35.36
2023-04-11T15:04:48.505Z,36.10
2023-04-11T15:07:16.155Z,36.96
2023-04-11T15:09:44.113Z,36.13
2023-04-11T15:12:13.210Z,36.51
2023-04-11T15:14:41.201Z,34.96
2023-04-11T15:17:08.889Z,34.21
2023-04-11T15:19:36.674Z,34.59
2023-04-11T15:22:04.549Z,35.15
2023-04-11T15:24:32.431Z,34.84
2023-04-11T15:27:00.976Z,34.90
2023-04-11T15:29:30.224Z,34.41
2023-04-11T15:31:57.908Z,34.21
2023-04-11T15:34:26.429Z,34.53
2023-04-11T15:36:54.117Z,34.59
2023-04-11T15:39:21.887Z,34.11
2023-04-11T15:41:49.630Z,34.46
2023-04-11T15:44:17.326Z,33.91
2023-04-11T15:46:48.935Z,33.56
2023-04-11T16:02:02.926Z,32.91
2023-04-11T16:04:30.720Z,33.03
2023-04-11T16:06:58.771Z,33.42
2023-04-11T16:09:27.408Z,33.32
2023-04-11T16:11:56.664Z,32.73
2023-04-11T16:14:24.913Z,33.09
2023-04-11T16:16:53.451Z,32.74
2023-04-11T16:19:22.511Z,33.46
2023-04-11T16:21:50.119Z,33.53
2023-04-11T16:24:18.861Z,33.58
2023-04-11T16:26:46.653Z,34.11
2023-04-11T16:29:14.355Z,33.99
2023-04-11T16:31:42.020Z,35.16
2023-04-11T16:34:10.008Z,35.48
2023-04-11T16:36:39.260Z,35.58
2023-04-11T16:39:07.239Z,35.54
2023-04-11T16:41:36.361Z,34.78
2023-04-11T16:44:05.786Z,35.61
2023-04-11T16:46:33.730Z,34.68
2023-04-11T16:49:01.543Z,34.70
2023-04-11T16:51:29.354Z,34.30
2023-04-11T16:53:58.526Z,33.87
2023-04-11T16:56:28.896Z,34.10
2023-04-11T16:58:56.979Z,34.20
2023-04-11T17:01:24.801Z,34.64
2023-04-11T17:03:53.727Z,34.88
2023-04-11T17:06:21.625Z,35.39
2023-04-11T17:08:49.332Z,35.25
2023-04-11T17:11:18.603Z,35.96
2023-04-11T17:13:47.903Z,36.48
2023-04-11T17:16:16.186Z,37.23
2023-04-11T17:18:44.211Z,37.86
2023-04-11T17:21:12.335Z,37.97
2023-04-11T17:23:43.508Z,38.73
2023-04-11T17:26:13.108Z,39.16
2023-04-11T17:28:42.339Z,39.34
2023-04-11T17:31:13.329Z,39.22
2023-04-11T17:33:41.251Z,39.50
2023-04-11T17:36:10.116Z,39.68
2023-04-11T17:38:38.504Z,39.49
2023-04-11T17:41:14.206Z,39.91
2023-04-11T17:43:44.784Z,39.64
2023-04-11T17:46:12.880Z,39.66
2023-04-11T17:48:40.724Z,39.67
2023-04-11T17:51:08.389Z,39.84
2023-04-11T17:53:36.150Z,39.90
2023-04-11T17:56:04.457Z,40.60
2023-04-11T17:58:32.205Z,41.23
2023-04-11T18:01:03.529Z,41.96
2023-04-11T18:03:35.085Z,42.76
2023-04-11T18:06:03.459Z,43.15
2023-04-11T18:08:49.249Z,43.23
2023-04-11T18:11:18.005Z,43.61
2023-04-11T18:13:48.272Z,43.75
2023-04-11T18:16:18.737Z,43.55
2023-04-11T18:18:47.057Z,44.20
2023-04-11T18:21:15.825Z,44.70
2023-04-11T18:23:43.593Z,44.84
2023-04-11T18:26:11.670Z,44.90
2023-04-11T18:28:39.448Z,44.67
2023-04-11T18:31:07.162Z,44.91
2023-04-11T18:33:41.365Z,44.83
2023-04-11T18:36:10.354Z,44.69
2023-04-11T18:38:38.177Z,44.82
2023-04-11T18:41:07.860Z,45.44
2023-04-11T18:43:37.604Z,46.34
2023-04-11T18:46:07.584Z,46.74
2023-04-11T18:48:36.810Z,47.06
2023-04-11T18:51:05.335Z,46.84
2023-04-11T18:53:34.892Z,46.54
2023-04-11T18:56:03.555Z,47.11
2023-04-11T18:58:33.267Z,47.67
2023-04-11T19:01:14.093Z,47.79
2023-04-11T19:03:45.931Z,48.10
2023-04-11T19:06:14.469Z,48.20
2023-04-11T19:08:42.275Z,48.25
2023-04-11T19:11:10.108Z,48.56
2023-04-11T19:13:37.862Z,48.63
2023-04-11T19:16:06.420Z,48.95
2023-04-11T19:18:34.222Z,49.00
2023-04-11T19:21:03.514Z,49.01
2023-04-11T19:23:31.311Z,49.20
2023-04-11T19:26:00.686Z,49.48
2023-04-11T19:28:28.620Z,49.97
2023-04-11T19:30:56.493Z,50.78
2023-04-11T19:33:26.090Z,50.78
2023-04-11T19:35:54.250Z,50.72
2023-04-11T19:38:24.021Z,51.26
2023-04-11T19:40:51.882Z,50.92
2023-04-11T19:43:19.807Z,51.09
2023-04-11T19:45:47.954Z,51.01
2023-04-11T19:48:16.241Z,51.06
2023-04-11T19:50:44.034Z,51.08
2023-04-11T19:53:11.915Z,51.43
2023-04-11T19:55:41.202Z,51.62
2023-04-11T19:58:08.913Z,51.32
2023-04-11T20:00:38.539Z,51.18
2023-04-11T20:03:08.040Z,51.36
2023-04-11T20:05:35.977Z,51.54
2023-04-11T20:08:03.708Z,51.61
2023-04-11T20:10:31.768Z,51.87
2023-04-11T20:13:02.358Z,51.79
2023-04-11T20:15:30.393Z,51.59
2023-04-11T20:17:58.593Z,51.59
2023-04-11T20:20:27.714Z,51.71
2023-04-11T20:22:55.609Z,52.12
2023-04-11T20:25:23.953Z,52.83
2023-04-11T20:27:51.696Z,53.70
2023-04-11T20:30:21.149Z,54.65
2023-04-11T20:32:48.908Z,53.32
2023-04-11T20:35:16.921Z,52.77
2023-04-11T20:37:44.696Z,52.57
2023-04-11T20:40:13.795Z,53.42
2023-04-11T20:42:42.645Z,54.68
2023-04-11T20:45:12.266Z,55.52
2023-04-11T20:47:41.919Z,56.04
2023-04-11T20:50:13.863Z,57.60
2023-04-11T20:52:43.310Z,57.86
2023-04-11T20:55:11.729Z,58.00
2023-04-11T20:57:39.415Z,59.03
2023-04-11T21:00:12.625Z,59.17
2023-04-11T21:02:44.324Z,58.99
2023-04-11T21:05:13.312Z,59.70
2023-04-11T21:07:42.010Z,59.46
2023-04-11T21:10:10.837Z,59.65
2023-04-11T21:12:38.813Z,59.74
2023-04-11T21:15:08.964Z,60.28
2023-04-11T21:17:39.237Z,60.50
2023-04-11T21:20:10.314Z,60.92
2023-04-11T21:22:40.142Z,61.67
2023-04-11T21:25:09.521Z,61.23
2023-04-11T21:27:37.196Z,61.41
2023-04-11T21:30:06.197Z,61.41
2023-04-11T21:32:33.945Z,61.66
2023-04-11T21:35:01.953Z,61.72
2023-04-11T21:37:30.959Z,62.58
2023-04-11T21:39:58.585Z,63.13
2023-04-11T21:42:26.248Z,63.13
2023-04-11T21:44:53.928Z,62.92
2023-04-11T21:47:22.625Z,62.80
2023-04-11T21:49:50.397Z,63.28
2023-04-11T21:52:18.063Z,63.34
2023-04-11T21:54:47.592Z,62.99
2023-04-11T21:57:15.265Z,63.66
2023-04-11T21:59:43.054Z,63.58
2023-04-11T22:02:10.773Z,64.04
2023-04-11T22:04:51.342Z,63.50
2023-04-11T22:07:24.800Z,62.89
2023-04-11T22:09:58.382Z,63.36
2023-04-11T22:12:28.364Z,63.73
2023-04-11T22:14:57.085Z,63.85
2023-04-11T22:17:24.901Z,63.14
2023-04-11T22:19:52.549Z,63.82
2023-04-11T22:22:20.278Z,64.43
2023-04-11T22:24:47.954Z,64.33
2023-04-11T22:27:18.201Z,64.46
2023-04-11T22:29:46.588Z,64.58
2023-04-11T22:32:14.270Z,64.63
2023-04-11T22:34:41.976Z,65.58
2023-04-11T22:37:09.659Z,66.01
2023-04-11T22:39:37.404Z,66.21
2023-04-11T22:42:06.707Z,66.42
2023-04-11T22:44:35.834Z,66.56
2023-04-11T22:47:07.012Z,66.46
2023-04-11T22:49:40.234Z,65.96
2023-04-11T22:52:08.268Z,65.58
2023-04-11T22:54:36.416Z,66.16
2023-04-11T22:57:04.391Z,65.92
2023-04-11T22:59:32.042Z,66.20
2023-04-11T23:02:01.061Z,66.79
2023-04-11T23:04:28.789Z,66.41
2023-04-11T23:06:56.680Z,66.72
2023-04-11T23:09:24.480Z,66.68
2023-04-11T23:11:53.344Z,66.65
2023-04-11T23:14:22.208Z,67.12
2023-04-11T23:16:50.152Z,66.98
2023-04-11T23:19:19.874Z,66.05
2023-04-11T23:21:48.917Z,67.73
2023-04-11T23:24:16.718Z,62.64
2023-04-11T23:26:44.429Z,62.20
2023-04-11T23:29:12.164Z,60.07
2023-04-11T23:31:39.827Z,59.65
2023-04-11T23:34:07.470Z,60.31
2023-04-11T23:36:36.666Z,60.13
2023-04-11T23:39:05.599Z,59.94
2023-04-11T23:41:33.324Z,60.59
2023-04-11T23:44:01.106Z,61.69
2023-04-11T23:46:28.877Z,61.58
2023-04-11T23:48:56.588Z,61.63
2023-04-11T23:51:24.213Z,62.50
2023-04-11T23:53:53.243Z,63.19
2023-04-11T23:56:22.960Z,64.21
2023-04-11T23:58:50.590Z,66.02
